createdAt,value
2018-02-09T00:00:46.743Z,1022.09
2018-02-09T00:01:46.722Z,1022.05
2018-02-09T00:02:46.738Z,1022.09
2018-02-09T00:03:46.717Z,1022.05
2018-02-09T00:04:46.733Z,1022.1
2018-02-09T00:05:46.988Z,1022.01
2018-02-09T00:06:46.742Z,1022.04
2018-02-09T00:07:46.721Z,1021.97
2018-02-09T00:08:46.714Z,1021.99
2018-02-09T00:09:46.725Z,1021.97
2018-02-09T00:10:46.769Z,1022.02
2018-02-09T00:11:46.771Z,1022.02
2018-02-09T00:12:46.717Z,1022.06
2018-02-09T00:13:46.712Z,1022.03
2018-02-09T00:14:46.704Z,1022
2018-02-09T00:15:46.758Z,1021.97
2018-02-09T00:16:46.967Z,1021.97
2018-02-09T00:17:46.718Z,1022
2018-02-09T00:18:46.713Z,1021.98
2018-02-09T00:19:46.710Z,1022.02
2018-02-09T00:20:46.720Z,1022.01
2018-02-09T00:21:46.747Z,1022.02
2018-02-09T00:22:46.716Z,1022.04
2018-02-09T00:23:46.721Z,1022.01
2018-02-09T00:24:46.710Z,1021.99
2018-02-09T00:25:46.700Z,1021.99
2018-02-09T00:26:46.742Z,1021.98
2018-02-09T00:27:46.727Z,1021.98
2018-02-09T00:28:46.720Z,1021.97
2018-02-09T00:29:46.711Z,1022
2018-02-09T00:30:46.715Z,1021.95
2018-02-09T00:31:46.832Z,1022.05
2018-02-09T00:32:46.735Z,1022
2018-02-09T00:33:46.771Z,1021.99
2018-02-09T00:34:46.705Z,1021.99
2018-02-09T00:35:46.712Z,1022.02
2018-02-09T00:36:46.745Z,1022
2018-02-09T00:37:46.718Z,1021.98
2018-02-09T00:38:46.710Z,1021.98
2018-02-09T00:39:46.724Z,1021.98
2018-02-09T00:40:46.701Z,1021.96
2018-02-09T00:41:46.696Z,1022.01
2018-02-09T00:42:47.000Z,1021.96
2018-02-09T00:44:46.705Z,1021.97
2018-02-09T00:45:46.762Z,1021.93
2018-02-09T00:46:46.713Z,1021.93
2018-02-09T00:47:46.732Z,1021.93
2018-02-09T00:48:46.705Z,1021.95
2018-02-09T00:49:46.745Z,1021.94
2018-02-09T00:50:46.839Z,1021.9
2018-02-09T00:51:46.685Z,1021.91
2018-02-09T00:52:46.722Z,1021.9
2018-02-09T00:53:46.705Z,1021.85
2018-02-09T00:54:46.682Z,1021.86
2018-02-09T00:55:46.703Z,1021.85
2018-02-09T00:56:46.693Z,1021.85
2018-02-09T00:57:46.743Z,1021.88
2018-02-09T00:58:46.702Z,1021.82
2018-02-09T00:59:46.701Z,1021.9
2018-02-09T01:00:46.707Z,1021.9
2018-02-09T01:01:46.714Z,1021.85
2018-02-09T01:02:46.728Z,1021.87
2018-02-09T01:03:46.696Z,1021.86
2018-02-09T01:04:46.945Z,1021.83
2018-02-09T01:05:46.696Z,1021.87
2018-02-09T01:06:46.682Z,1021.82
2018-02-09T01:07:46.714Z,1021.78
2018-02-09T01:08:46.697Z,1021.85
2018-02-09T01:09:46.700Z,1021.83
2018-02-09T01:10:46.681Z,1021.82
2018-02-09T01:11:46.700Z,1021.84
2018-02-09T01:12:46.805Z,1021.8
2018-02-09T01:13:46.684Z,1021.83
2018-02-09T01:14:46.705Z,1021.81
2018-02-09T01:15:46.699Z,1021.78
2018-02-09T01:16:46.714Z,1021.83
2018-02-09T01:17:46.849Z,1021.78
2018-02-09T01:18:46.683Z,1021.81
2018-02-09T01:19:46.681Z,1021.77
2018-02-09T01:20:46.787Z,1021.76
2018-02-09T01:21:46.690Z,1021.76
2018-02-09T01:22:46.720Z,1021.75
2018-02-09T01:23:46.719Z,1021.76
2018-02-09T01:24:46.690Z,1021.73
2018-02-09T01:25:46.690Z,1021.78
2018-02-09T01:26:46.687Z,1021.75
2018-02-09T01:27:46.683Z,1021.77
2018-02-09T01:28:46.754Z,1021.71
2018-02-09T01:29:46.709Z,1021.73
2018-02-09T01:30:46.706Z,1021.73
2018-02-09T01:31:46.691Z,1021.71
2018-02-09T01:32:46.699Z,1021.71
2018-02-09T01:33:46.713Z,1021.73
2018-02-09T01:34:46.679Z,1021.77
2018-02-09T01:35:46.701Z,1021.73
2018-02-09T01:36:46.704Z,1021.71
2018-02-09T01:37:46.686Z,1021.71
2018-02-09T01:38:46.693Z,1021.72
2018-02-09T01:39:46.684Z,1021.71
2018-02-09T01:40:46.676Z,1021.73
2018-02-09T01:41:46.682Z,1021.74
2018-02-09T01:42:46.682Z,1021.71
2018-02-09T01:43:46.808Z,1021.72
2018-02-09T01:44:46.694Z,1021.75
2018-02-09T01:45:46.669Z,1021.72
2018-02-09T01:46:46.694Z,1021.73
2018-02-09T01:47:46.748Z,1021.72
2018-02-09T01:48:46.707Z,1021.72
2018-02-09T01:49:46.695Z,1021.7
2018-02-09T01:50:46.694Z,1021.75
2018-02-09T01:51:46.692Z,1021.73
2018-02-09T01:52:46.676Z,1021.73
2018-02-09T01:53:46.696Z,1021.72
2018-02-09T01:54:46.732Z,1021.74
2018-02-09T01:55:46.683Z,1021.74
2018-02-09T01:56:46.684Z,1021.72
2018-02-09T01:57:46.665Z,1021.73
2018-02-09T01:58:46.682Z,1021.76
2018-02-09T01:59:46.960Z,1021.74
2018-02-09T02:00:46.697Z,1021.71
2018-02-09T02:01:46.674Z,1021.7
2018-02-09T02:02:46.678Z,1021.76
2018-02-09T02:03:46.728Z,1021.72
2018-02-09T02:04:46.719Z,1021.69
2018-02-09T02:05:46.664Z,1021.7
2018-02-09T02:06:46.698Z,1021.7
2018-02-09T02:07:46.673Z,1021.64
2018-02-09T02:08:46.709Z,1021.63
2018-02-09T02:09:46.680Z,1021.64
2018-02-09T02:10:46.690Z,1021.62
2018-02-09T02:11:46.703Z,1021.62
2018-02-09T02:12:46.668Z,1021.59
2018-02-09T02:13:46.695Z,1021.63
2018-02-09T02:14:46.667Z,1021.59
2018-02-09T02:15:46.697Z,1021.54
2018-02-09T02:16:46.685Z,1021.59
2018-02-09T02:17:46.708Z,1021.56
2018-02-09T02:18:46.680Z,1021.56
2018-02-09T02:19:46.695Z,1021.55
2018-02-09T02:20:46.713Z,1021.51
2018-02-09T02:21:46.675Z,1021.49
2018-02-09T02:22:46.669Z,1021.49
2018-02-09T02:23:46.694Z,1021.46
2018-02-09T02:24:46.672Z,1021.51
2018-02-09T02:25:46.695Z,1021.49
2018-02-09T02:26:46.661Z,1021.47
2018-02-09T02:27:46.678Z,1021.49
2018-02-09T02:28:46.695Z,1021.48
2018-02-09T02:29:46.669Z,1021.46
2018-02-09T02:30:46.691Z,1021.45
2018-02-09T02:31:46.669Z,1021.49
2018-02-09T02:32:46.667Z,1021.46
2018-02-09T02:33:46.685Z,1021.48
2018-02-09T02:34:46.659Z,1021.48
2018-02-09T02:35:46.703Z,1021.46
2018-02-09T02:36:46.669Z,1021.44
2018-02-09T02:37:46.706Z,1021.46
2018-02-09T02:38:46.668Z,1021.41
2018-02-09T02:39:46.661Z,1021.38
2018-02-09T02:40:46.669Z,1021.36
2018-02-09T02:41:46.705Z,1021.37
2018-02-09T02:42:46.658Z,1021.3
2018-02-09T02:43:46.702Z,1021.32
2018-02-09T02:44:46.664Z,1021.3
2018-02-09T02:45:46.693Z,1021.31
2018-02-09T02:46:46.652Z,1021.26
2018-02-09T02:47:46.657Z,1021.28
2018-02-09T02:48:46.650Z,1021.26
2018-02-09T02:49:46.652Z,1021.24
2018-02-09T02:50:46.796Z,1021.23
2018-02-09T02:51:46.679Z,1021.18
2018-02-09T02:52:46.655Z,1021.18
2018-02-09T02:53:46.647Z,1021.19
2018-02-09T02:54:46.668Z,1021.19
2018-02-09T02:55:46.643Z,1021.19
2018-02-09T02:56:46.665Z,1021.17
2018-02-09T02:57:46.704Z,1021.16
2018-02-09T02:58:46.710Z,1021.16
2018-02-09T02:59:46.644Z,1021.17
2018-02-09T03:00:46.658Z,1021.15
2018-02-09T03:01:46.647Z,1021.22
2018-02-09T03:02:46.671Z,1021.19
2018-02-09T03:03:46.680Z,1021.15
2018-02-09T03:04:46.645Z,1021.17
2018-02-09T03:05:46.652Z,1021.15
2018-02-09T03:06:46.921Z,1021.19
2018-02-09T03:07:46.665Z,1021.17
2018-02-09T03:08:46.661Z,1021.18
2018-02-09T03:09:46.649Z,1021.16
2018-02-09T03:10:46.649Z,1021.19
2018-02-09T03:11:46.668Z,1021.15
2018-02-09T03:12:46.647Z,1021.12
2018-02-09T03:13:46.636Z,1021.19
2018-02-09T03:14:46.701Z,1021.18
2018-02-09T03:15:46.644Z,1021.13
2018-02-09T03:16:46.667Z,1021.15
2018-02-09T03:17:46.673Z,1021.09
2018-02-09T03:18:46.647Z,1021.14
2018-02-09T03:19:46.637Z,1021.11
2018-02-09T03:20:46.635Z,1021.12
2018-02-09T03:21:46.639Z,1021.07
2018-02-09T03:22:46.676Z,1021.06
2018-02-09T03:23:46.640Z,1021.09
2018-02-09T03:24:46.649Z,1021.02
2018-02-09T03:25:46.647Z,1021.02
2018-02-09T03:26:46.655Z,1021.02
2018-02-09T03:27:46.678Z,1021
2018-02-09T03:28:46.629Z,1021.01
2018-02-09T03:29:46.640Z,1021
2018-02-09T03:30:46.632Z,1020.96
2018-02-09T03:31:46.649Z,1021.02
2018-02-09T03:32:46.773Z,1021.02
2018-02-09T03:33:46.651Z,1021
2018-02-09T03:34:46.660Z,1021.04
2018-02-09T03:35:46.634Z,1020.98
2018-02-09T03:36:46.638Z,1020.99
2018-02-09T03:37:46.674Z,1021.03
2018-02-09T03:38:46.643Z,1021.02
2018-02-09T03:39:46.902Z,1021.06
2018-02-09T03:40:46.671Z,1020.97
2018-02-09T03:41:46.649Z,1020.99
2018-02-09T03:42:46.624Z,1021.01
2018-02-09T03:43:46.634Z,1021
2018-02-09T03:44:46.639Z,1021.04
2018-02-09T03:45:46.642Z,1021.01
2018-02-09T03:46:46.626Z,1021.04
2018-02-09T03:47:46.667Z,1021.03
2018-02-09T03:48:46.645Z,1021.03
2018-02-09T03:49:46.661Z,1021.03
2018-02-09T03:50:46.637Z,1021.04
2018-02-09T03:51:46.633Z,1021.03
2018-02-09T03:52:46.661Z,1021
2018-02-09T03:53:46.629Z,1021
2018-02-09T03:54:46.622Z,1021.01
2018-02-09T03:55:46.647Z,1021
2018-02-09T03:56:46.631Z,1021.07
2018-02-09T03:57:46.628Z,1021.03
2018-02-09T03:58:46.851Z,1021.01
2018-02-09T03:59:46.626Z,1021.05
2018-02-09T04:00:46.641Z,1021
2018-02-09T04:01:46.616Z,1021.03
2018-02-09T04:02:46.666Z,1021.01
2018-02-09T04:03:46.648Z,1020.95
2018-02-09T04:04:46.621Z,1021
2018-02-09T04:05:46.637Z,1020.98
2018-02-09T04:06:46.573Z,1021.03
2018-02-09T04:07:46.650Z,1021.03
2018-02-09T04:08:46.632Z,1021.02
2018-02-09T04:09:46.638Z,1021.04
2018-02-09T04:10:46.622Z,1021.01
2018-02-09T04:11:46.645Z,1021
2018-02-09T04:12:46.619Z,1021.03
2018-02-09T04:13:46.634Z,1021
2018-02-09T04:14:46.646Z,1021.01
2018-02-09T04:15:46.630Z,1021.01
2018-02-09T04:16:46.613Z,1020.96
2018-02-09T04:17:46.639Z,1020.98
2018-02-09T04:18:46.649Z,1020.97
2018-02-09T04:19:46.631Z,1020.94
2018-02-09T04:20:46.646Z,1020.99
2018-02-09T04:21:46.633Z,1021
2018-02-09T04:22:46.634Z,1020.99
2018-02-09T04:23:46.640Z,1020.95
2018-02-09T04:24:46.642Z,1020.94
2018-02-09T04:25:46.617Z,1020.93
2018-02-09T04:26:46.612Z,1020.92
2018-02-09T04:27:46.619Z,1020.93
2018-02-09T04:28:46.634Z,1020.88
2018-02-09T04:29:46.911Z,1020.88
2018-02-09T04:30:46.608Z,1020.9
2018-02-09T04:31:46.632Z,1020.84
2018-02-09T04:32:46.616Z,1020.89
2018-02-09T04:33:46.637Z,1020.87
2018-02-09T04:34:46.638Z,1020.86
2018-02-09T04:35:46.621Z,1020.87
2018-02-09T04:36:46.661Z,1020.87
2018-02-09T04:37:46.651Z,1020.82
2018-02-09T04:38:46.628Z,1020.8
2018-02-09T04:39:46.617Z,1020.84
2018-02-09T04:40:46.677Z,1020.81
2018-02-09T04:41:46.641Z,1020.82
2018-02-09T04:42:46.650Z,1020.82
2018-02-09T04:43:46.615Z,1020.84
2018-02-09T04:44:46.619Z,1020.8
2018-02-09T04:45:46.624Z,1020.83
2018-02-09T04:46:46.626Z,1020.85
2018-02-09T04:47:46.626Z,1020.81
2018-02-09T04:48:46.630Z,1020.83
2018-02-09T04:49:46.639Z,1020.79
2018-02-09T04:50:46.623Z,1020.81
2018-02-09T04:51:46.712Z,1020.79
2018-02-09T04:52:46.622Z,1020.79
2018-02-09T04:53:46.621Z,1020.82
2018-02-09T04:54:46.620Z,1020.8
2018-02-09T04:55:46.630Z,1020.85
2018-02-09T04:56:46.628Z,1020.84
2018-02-09T04:57:46.611Z,1020.85
2018-02-09T04:58:46.608Z,1020.85
2018-02-09T04:59:46.618Z,1020.83
2018-02-09T05:00:46.663Z,1020.83
2018-02-09T05:01:46.596Z,1020.81
2018-02-09T05:02:46.668Z,1020.82
2018-02-09T05:03:46.624Z,1020.74
2018-02-09T05:04:46.620Z,1020.73
2018-02-09T05:05:46.879Z,1020.71
2018-02-09T05:06:46.605Z,1020.73
2018-02-09T05:07:46.610Z,1020.75
2018-02-09T05:08:46.600Z,1020.76
2018-02-09T05:09:46.632Z,1020.71
2018-02-09T05:10:46.637Z,1020.68
2018-02-09T05:11:46.605Z,1020.68
2018-02-09T05:12:46.592Z,1020.65
2018-02-09T05:13:46.655Z,1020.72
2018-02-09T05:14:46.617Z,1020.68
2018-02-09T05:16:46.718Z,1020.68
2018-02-09T05:17:46.638Z,1020.66
2018-02-09T05:18:46.608Z,1020.69
2018-02-09T05:19:46.596Z,1020.7
2018-02-09T05:20:46.619Z,1020.69
2018-02-09T05:21:46.622Z,1020.65
2018-02-09T05:22:46.601Z,1020.69
2018-02-09T05:23:46.598Z,1020.67
2018-02-09T05:24:46.588Z,1020.69
2018-02-09T05:25:46.607Z,1020.72
2018-02-09T05:26:46.608Z,1020.74
2018-02-09T05:27:46.605Z,1020.69
2018-02-09T05:28:46.617Z,1020.66
2018-02-09T05:29:46.598Z,1020.67
2018-02-09T05:30:46.591Z,1020.68
2018-02-09T05:32:46.633Z,1020.68
2018-02-09T05:33:46.596Z,1020.67
2018-02-09T05:34:46.602Z,1020.65
2018-02-09T05:35:46.610Z,1020.68
2018-02-09T05:36:46.597Z,1020.66
2018-02-09T05:37:46.624Z,1020.68
2018-02-09T05:38:46.588Z,1020.66
2018-02-09T05:39:46.648Z,1020.67
2018-02-09T05:40:46.594Z,1020.64
2018-02-09T05:41:46.592Z,1020.63
2018-02-09T05:42:46.866Z,1020.59
2018-02-09T05:43:46.598Z,1020.57
2018-02-09T05:44:46.592Z,1020.58
2018-02-09T05:45:46.597Z,1020.55
2018-02-09T05:46:46.578Z,1020.56
2018-02-09T05:47:46.625Z,1020.54
2018-02-09T05:48:46.592Z,1020.53
2018-02-09T05:49:46.602Z,1020.5
2018-02-09T05:50:46.585Z,1020.52
2018-02-09T05:51:46.588Z,1020.49
2018-02-09T05:52:46.778Z,1020.48
2018-02-09T05:53:46.586Z,1020.48
2018-02-09T05:54:46.592Z,1020.48
2018-02-09T05:55:46.577Z,1020.47
2018-02-09T05:56:46.624Z,1020.45
2018-02-09T05:57:46.619Z,1020.43
2018-02-09T05:58:46.596Z,1020.43
2018-02-09T05:59:46.595Z,1020.41
2018-02-09T06:00:46.590Z,1020.42
2018-02-09T06:01:46.576Z,1020.42
2018-02-09T06:02:46.611Z,1020.39
2018-02-09T06:03:46.617Z,1020.4
2018-02-09T06:04:46.588Z,1020.38
2018-02-09T06:05:46.592Z,1020.39
2018-02-09T06:06:46.577Z,1020.35
2018-02-09T06:07:46.570Z,1020.33
2018-02-09T06:08:46.601Z,1020.36
2018-02-09T06:09:46.585Z,1020.31
2018-02-09T06:15:30.732Z,1020.26
2018-02-09T06:16:30.265Z,1020.28
2018-02-09T06:17:30.264Z,1020.29
2018-02-09T06:18:30.295Z,1020.27
2018-02-09T06:19:30.266Z,1020.29
2018-02-09T06:20:30.254Z,1020.29
2018-02-09T06:21:30.293Z,1020.25
2018-02-09T06:22:30.261Z,1020.24
2018-02-09T06:23:30.274Z,1020.25
2018-02-09T06:24:30.264Z,1020.25
2018-02-09T06:25:30.523Z,1020.28
2018-02-09T06:26:30.277Z,1020.27
2018-02-09T06:27:30.299Z,1020.26
2018-02-09T06:28:30.334Z,1020.24
2018-02-09T06:29:30.266Z,1020.23
2018-02-09T06:30:30.257Z,1020.21
2018-02-09T06:31:30.269Z,1020.2
2018-02-09T06:32:30.267Z,1020.19
2018-02-09T06:33:30.261Z,1020.21
2018-02-09T06:34:30.258Z,1020.19
2018-02-09T06:35:30.277Z,1020.18
2018-02-09T06:36:30.298Z,1020.18
2018-02-09T06:37:30.270Z,1020.2
2018-02-09T06:38:30.267Z,1020.23
2018-02-09T06:39:30.284Z,1020.2
2018-02-09T06:40:30.262Z,1020.15
2018-02-09T06:41:30.269Z,1020.23
2018-02-09T06:42:30.253Z,1020.21
2018-02-09T06:43:30.259Z,1020.2
2018-02-09T06:44:30.265Z,1020.2
2018-02-09T06:45:30.266Z,1020.16
2018-02-09T06:46:30.314Z,1020.17
2018-02-09T06:47:30.300Z,1020.16
2018-02-09T06:48:30.304Z,1020.17
2018-02-09T06:49:30.350Z,1020.22
2018-02-09T06:50:30.343Z,1020.2
2018-02-09T06:51:30.348Z,1020.17
2018-02-09T06:52:30.312Z,1020.18
2018-02-09T06:53:30.548Z,1020.18
2018-02-09T06:54:30.314Z,1020.21
2018-02-09T06:55:30.352Z,1020.16
2018-02-09T06:56:30.305Z,1020.19
2018-02-09T06:57:30.299Z,1020.16
2018-02-09T06:58:30.329Z,1020.19
2018-02-09T06:59:30.312Z,1020.2
2018-02-09T07:00:30.326Z,1020.17
2018-02-09T07:01:30.329Z,1020.2
2018-02-09T07:02:30.300Z,1020.16
2018-02-09T07:03:30.301Z,1020.14
2018-02-09T07:04:30.305Z,1020.13
2018-02-09T07:06:30.325Z,1020.19
2018-02-09T07:07:30.334Z,1020.19
2018-02-09T07:08:30.314Z,1020.2
2018-02-09T07:09:30.305Z,1020.22
2018-02-09T07:10:30.338Z,1020.16
2018-02-09T07:11:30.299Z,1020.14
2018-02-09T07:12:30.339Z,1020.15
2018-02-09T07:13:30.298Z,1020.19
2018-02-09T07:14:30.305Z,1020.15
2018-02-09T07:15:30.319Z,1020.18
2018-02-09T07:16:30.314Z,1020.16
2018-02-09T07:17:30.320Z,1020.15
2018-02-09T07:18:30.303Z,1020.17
2018-02-09T07:19:30.296Z,1020.17
2018-02-09T07:20:30.313Z,1020.15
2018-02-09T07:21:30.311Z,1020.14
2018-02-09T07:22:30.312Z,1020.16
2018-02-09T07:23:30.308Z,1020.11
2018-02-09T07:24:30.290Z,1020.14
2018-02-09T07:25:30.293Z,1020.12
2018-02-09T07:26:30.297Z,1020.08
2018-02-09T07:27:30.346Z,1020.1
2018-02-09T07:28:30.295Z,1020.1
2018-02-09T07:29:30.318Z,1020.1
2018-02-09T07:30:30.310Z,1020.13
2018-02-09T07:31:30.296Z,1020.06
2018-02-09T07:32:30.301Z,1020.09
2018-02-09T07:33:30.291Z,1020.09
2018-02-09T07:34:30.310Z,1020.11
2018-02-09T07:35:30.293Z,1020.12
2018-02-09T07:36:30.327Z,1020.11
2018-02-09T07:37:30.317Z,1020.14
2018-02-09T07:38:30.297Z,1020.11
2018-02-09T07:39:30.291Z,1020.11
2018-02-09T07:40:30.290Z,1020.1
2018-02-09T07:41:30.343Z,1020.06
2018-02-09T07:42:30.348Z,1020.08
2018-02-09T07:43:30.277Z,1020.04
2018-02-09T07:44:30.370Z,1020.11
2018-02-09T07:45:30.295Z,1020.11
2018-02-09T07:46:30.287Z,1020.09
2018-02-09T07:47:30.286Z,1020.08
2018-02-09T07:48:30.287Z,1020.06
2018-02-09T07:49:30.313Z,1020.09
2018-02-09T07:50:30.269Z,1020.07
2018-02-09T07:51:30.288Z,1020.09
2018-02-09T07:52:30.272Z,1020.05
2018-02-09T07:53:30.292Z,1020
2018-02-09T07:54:30.326Z,1020.02
2018-02-09T07:55:30.293Z,1019.98
2018-02-09T07:56:30.385Z,1020.01
2018-02-09T07:57:30.391Z,1020.03
2018-02-09T07:58:30.285Z,1020.01
2018-02-09T07:59:30.289Z,1020
2018-02-09T08:00:30.293Z,1020
2018-02-09T08:01:30.275Z,1020.03
2018-02-09T08:02:30.286Z,1019.99
2018-02-09T08:03:30.280Z,1019.98
2018-02-09T08:04:30.277Z,1020
2018-02-09T08:05:30.301Z,1020
2018-02-09T08:07:30.286Z,1019.95
2018-02-09T08:08:30.267Z,1019.94
2018-02-09T08:09:30.275Z,1019.98
2018-02-09T08:10:30.317Z,1019.96
2018-02-09T08:11:30.296Z,1019.98
2018-02-09T08:12:30.270Z,1019.99
2018-02-09T08:13:30.279Z,1020
2018-02-09T08:14:30.294Z,1019.96
2018-02-09T08:15:30.302Z,1019.95
2018-02-09T08:16:30.300Z,1019.94
2018-02-09T08:17:30.298Z,1019.96
2018-02-09T08:18:30.298Z,1019.93
2018-02-09T08:19:30.295Z,1019.93
2018-02-09T08:20:30.391Z,1019.87
2018-02-09T08:21:30.268Z,1019.89
2018-02-09T08:22:30.264Z,1019.89
2018-02-09T08:23:30.277Z,1019.86
2018-02-09T08:24:30.274Z,1019.87
2018-02-09T08:25:30.314Z,1019.84
2018-02-09T08:26:30.271Z,1019.82
2018-02-09T08:27:30.316Z,1019.86
2018-02-09T08:28:30.259Z,1019.86
2018-02-09T08:29:30.277Z,1019.85
2018-02-09T08:30:30.290Z,1019.83
2018-02-09T08:31:30.282Z,1019.85
2018-02-09T08:32:30.263Z,1019.83
2018-02-09T08:33:30.662Z,1019.82
2018-02-09T08:34:30.328Z,1019.79
2018-02-09T08:35:30.304Z,1019.83
2018-02-09T08:36:30.341Z,1019.81
2018-02-09T08:37:30.257Z,1019.8
2018-02-09T08:38:30.272Z,1019.81
2018-02-09T08:39:30.288Z,1019.81
2018-02-09T08:40:30.542Z,1019.74
2018-02-09T08:41:30.284Z,1019.8
2018-02-09T08:42:30.310Z,1019.8
2018-02-09T08:43:30.258Z,1019.79
2018-02-09T08:44:30.258Z,1019.79
2018-02-09T08:45:30.386Z,1019.78
2018-02-09T08:46:30.294Z,1019.79
2018-02-09T08:47:30.280Z,1019.81
2018-02-09T08:48:30.305Z,1019.77
2018-02-09T08:49:30.265Z,1019.77
2018-02-09T08:50:30.298Z,1019.75
2018-02-09T08:51:30.276Z,1019.79
2018-02-09T08:52:30.413Z,1019.79
2018-02-09T08:53:30.272Z,1019.79
2018-02-09T08:54:30.299Z,1019.77
2018-02-09T08:55:30.251Z,1019.75
2018-02-09T08:56:30.309Z,1019.81
2018-02-09T08:57:30.304Z,1019.75
2018-02-09T08:58:30.262Z,1019.76
2018-02-09T08:59:30.266Z,1019.75
2018-02-09T09:00:30.483Z,1019.76
2018-02-09T09:01:30.277Z,1019.72
2018-02-09T09:02:30.303Z,1019.71
2018-02-09T09:03:30.248Z,1019.72
2018-02-09T09:04:30.264Z,1019.72
2018-02-09T09:05:30.253Z,1019.74
2018-02-09T09:06:30.270Z,1019.72
2018-02-09T09:07:30.290Z,1019.7
2018-02-09T09:08:30.268Z,1019.69
2018-02-09T09:09:30.255Z,1019.67
2018-02-09T09:10:30.255Z,1019.67
2018-02-09T09:11:30.263Z,1019.67
2018-02-09T09:12:30.251Z,1019.68
2018-02-09T09:13:30.264Z,1019.63
2018-02-09T09:14:30.269Z,1019.66
2018-02-09T09:15:30.251Z,1019.67
2018-02-09T09:16:30.327Z,1019.64
2018-02-09T09:17:30.285Z,1019.66
2018-02-09T09:18:30.259Z,1019.65
2018-02-09T09:19:30.253Z,1019.65
2018-02-09T09:20:30.359Z,1019.65
2018-02-09T09:21:30.278Z,1019.61
2018-02-09T09:22:30.258Z,1019.63
2018-02-09T09:23:30.263Z,1019.58
2018-02-09T09:24:30.274Z,1019.61
2018-02-09T09:25:30.294Z,1019.6
2018-02-09T09:26:30.294Z,1019.54
2018-02-09T09:27:30.260Z,1019.57
2018-02-09T09:28:30.270Z,1019.57
2018-02-09T09:30:30.245Z,1019.57
2018-02-09T09:31:30.258Z,1019.58
2018-02-09T09:32:30.265Z,1019.58
2018-02-09T09:33:30.241Z,1019.52
2018-02-09T09:34:30.262Z,1019.49
2018-02-09T09:35:30.249Z,1019.49
2018-02-09T09:36:30.256Z,1019.48
2018-02-09T09:37:30.303Z,1019.46
2018-02-09T09:38:30.243Z,1019.44
2018-02-09T09:39:30.259Z,1019.44
2018-02-09T09:40:30.235Z,1019.44
2018-02-09T09:41:30.288Z,1019.43
2018-02-09T09:42:30.248Z,1019.41
2018-02-09T09:43:30.257Z,1019.45
2018-02-09T09:44:30.260Z,1019.4
2018-02-09T09:45:30.294Z,1019.39
2018-02-09T09:46:30.288Z,1019.39
2018-02-09T09:47:30.297Z,1019.33
2018-02-09T09:48:30.274Z,1019.37
2018-02-09T09:49:30.241Z,1019.36
2018-02-09T09:50:30.236Z,1019.36
2018-02-09T09:51:30.269Z,1019.31
2018-02-09T09:52:30.266Z,1019.32
2018-02-09T09:53:30.265Z,1019.3
2018-02-09T09:54:30.245Z,1019.3
2018-02-09T09:55:30.228Z,1019.29
2018-02-09T09:56:30.244Z,1019.25
2018-02-09T09:57:30.614Z,1019.27
2018-02-09T09:58:30.250Z,1019.25
2018-02-09T09:59:30.271Z,1019.24
2018-02-09T10:00:30.233Z,1019.26
2018-02-09T10:01:30.250Z,1019.25
2018-02-09T10:02:30.255Z,1019.22
2018-02-09T10:03:30.263Z,1019.27
2018-02-09T10:04:30.295Z,1019.29
2018-02-09T10:05:30.254Z,1019.3
2018-02-09T10:06:30.235Z,1019.29
2018-02-09T10:07:30.234Z,1019.25
2018-02-09T10:08:30.243Z,1019.28
2018-02-09T10:09:30.278Z,1019.3
2018-02-09T10:10:30.286Z,1019.24
2018-02-09T10:11:30.236Z,1019.25
2018-02-09T10:12:30.253Z,1019.3
2018-02-09T10:13:30.282Z,1019.27
2018-02-09T10:14:30.231Z,1019.25
2018-02-09T10:15:30.273Z,1019.28
2018-02-09T10:16:30.229Z,1019.25
2018-02-09T10:17:30.234Z,1019.25
2018-02-09T10:19:30.268Z,1019.24
2018-02-09T10:20:30.234Z,1019.16
2018-02-09T10:21:30.235Z,1019.26
2018-02-09T10:22:30.230Z,1019.22
2018-02-09T10:23:30.238Z,1019.25
2018-02-09T10:24:30.247Z,1019.25
2018-02-09T10:25:30.286Z,1019.21
2018-02-09T10:26:30.252Z,1019.21
2018-02-09T10:27:30.240Z,1019.21
2018-02-09T10:28:30.238Z,1019.18
2018-02-09T10:29:30.259Z,1019.2
2018-02-09T10:30:30.243Z,1019.18
2018-02-09T10:31:30.223Z,1019.18
2018-02-09T10:32:30.257Z,1019.14
2018-02-09T10:33:30.240Z,1019.16
2018-02-09T10:34:30.248Z,1019.13
2018-02-09T10:35:30.230Z,1019.14
2018-02-09T10:36:30.236Z,1019.12
2018-02-09T10:37:30.242Z,1019.12
2018-02-09T10:38:30.259Z,1019.1
2018-02-09T10:39:30.230Z,1019.09
2018-02-09T10:40:30.252Z,1019.07
2018-02-09T10:41:30.244Z,1019.08
2018-02-09T10:42:30.222Z,1019.04
2018-02-09T10:43:30.198Z,1019.02
2018-02-09T10:44:30.212Z,1019.01
2018-02-09T10:45:30.239Z,1019
2018-02-09T10:46:30.293Z,1019.01
2018-02-09T10:47:30.227Z,1018.95
2018-02-09T10:48:30.232Z,1018.95
2018-02-09T10:49:30.240Z,1018.97
2018-02-09T10:50:30.213Z,1018.94
2018-02-09T10:51:30.232Z,1018.91
2018-02-09T10:52:30.224Z,1018.93
2018-02-09T10:53:30.257Z,1018.88
2018-02-09T10:54:30.235Z,1018.87
2018-02-09T10:55:30.211Z,1018.9
2018-02-09T10:56:30.216Z,1018.87
2018-02-09T10:57:30.335Z,1018.87
2018-02-09T10:58:30.210Z,1018.87
2018-02-09T10:59:30.258Z,1018.84
2018-02-09T11:00:30.241Z,1018.82
2018-02-09T11:01:30.221Z,1018.79
2018-02-09T11:02:30.216Z,1018.76
2018-02-09T11:03:30.221Z,1018.74
2018-02-09T11:04:30.213Z,1018.72
2018-02-09T11:05:30.255Z,1018.73
2018-02-09T11:06:30.260Z,1018.76
2018-02-09T11:07:30.252Z,1018.75
2018-02-09T11:08:30.220Z,1018.71
2018-02-09T11:09:30.241Z,1018.72
2018-02-09T11:10:30.271Z,1018.69
2018-02-09T11:11:30.245Z,1018.67
2018-02-09T11:12:30.195Z,1018.67
2018-02-09T11:13:30.218Z,1018.68
2018-02-09T11:14:30.218Z,1018.62
2018-02-09T11:15:30.231Z,1018.62
2018-02-09T11:16:30.218Z,1018.6
2018-02-09T11:17:30.214Z,1018.59
2018-02-09T11:18:30.214Z,1018.61
2018-02-09T11:19:30.215Z,1018.59
2018-02-09T11:20:30.219Z,1018.57
2018-02-09T11:21:30.200Z,1018.52
2018-02-09T11:22:30.213Z,1018.51
2018-02-09T11:23:30.276Z,1018.5
2018-02-09T11:24:30.194Z,1018.51
2018-02-09T11:25:30.204Z,1018.51
2018-02-09T11:26:30.218Z,1018.5
2018-02-09T11:27:30.218Z,1018.48
2018-02-09T11:28:30.230Z,1018.48
2018-02-09T11:29:30.237Z,1018.5
2018-02-09T11:30:30.212Z,1018.45
2018-02-09T11:31:30.220Z,1018.45
2018-02-09T11:32:30.228Z,1018.45
2018-02-09T11:34:30.213Z,1018.41
2018-02-09T11:35:30.233Z,1018.42
2018-02-09T11:36:30.198Z,1018.42
2018-02-09T11:37:30.209Z,1018.39
2018-02-09T11:39:30.232Z,1018.38
2018-02-09T11:40:30.217Z,1018.36
2018-02-09T11:41:30.196Z,1018.33
2018-02-09T11:42:30.203Z,1018.33
2018-02-09T11:43:30.243Z,1018.32
2018-02-09T11:44:30.279Z,1018.27
2018-02-09T11:45:30.330Z,1018.28
2018-02-09T11:46:30.220Z,1018.23
2018-02-09T11:47:30.207Z,1018.23
2018-02-09T11:48:30.198Z,1018.19
2018-02-09T11:49:30.251Z,1018.25
2018-02-09T11:50:30.250Z,1018.18
2018-02-09T11:51:30.204Z,1018.22
2018-02-09T11:52:30.209Z,1018.14
2018-02-09T11:53:30.348Z,1018.18
2018-02-09T11:54:30.213Z,1018.18
2018-02-09T11:55:30.190Z,1018.17
2018-02-09T11:56:30.192Z,1018.17
2018-02-09T11:57:30.192Z,1018.16
2018-02-09T11:58:30.305Z,1018.17
2018-02-09T12:00:30.201Z,1018.09
2018-02-09T12:01:30.195Z,1018.11
2018-02-09T12:02:30.230Z,1018.08
2018-02-09T12:03:30.235Z,1018.08
2018-02-09T12:04:30.272Z,1018
2018-02-09T12:05:30.203Z,1018.03
2018-02-09T12:06:30.206Z,1018
2018-02-09T12:07:30.209Z,1017.99
2018-02-09T12:08:30.197Z,1017.97
2018-02-09T12:09:30.184Z,1017.98
2018-02-09T12:10:30.187Z,1017.97
2018-02-09T12:11:30.188Z,1017.92
2018-02-09T12:12:30.200Z,1017.92
2018-02-09T12:13:30.183Z,1017.87
2018-02-09T12:14:30.193Z,1017.88
2018-02-09T12:15:30.204Z,1017.87
2018-02-09T12:16:30.236Z,1017.89
2018-02-09T12:17:30.203Z,1017.88
2018-02-09T12:18:30.194Z,1017.85
2018-02-09T12:19:30.193Z,1017.83
2018-02-09T12:20:30.214Z,1017.78
2018-02-09T12:21:30.219Z,1017.78
2018-02-09T12:22:30.182Z,1017.79
2018-02-09T12:23:30.192Z,1017.74
2018-02-09T12:24:30.279Z,1017.69